createdAt,value
2018-08-31T00:00:39.475Z,96628.07
2018-08-31T00:03:08.321Z,96628.47
2018-08-31T00:05:49.193Z,96625.40
2018-08-31T00:09:29.584Z,96624.36
2018-08-31T00:13:07.528Z,96629.10
2018-08-31T00:15:36.041Z,96621.77
2018-08-31T00:18:04.479Z,96623.53
2018-08-31T00:20:32.974Z,96622.27
2018-08-31T00:23:01.525Z,96623.31
2018-08-31T00:26:08.674Z,96622.27
2018-08-31T00:28:48.978Z,96627.84
2018-08-31T00:31:27.518Z,96633.68
2018-08-31T00:34:13.545Z,96630.52
2018-08-31T00:36:51.418Z,96627.52
2018-08-31T00:39:32.700Z,96628.23
2018-08-31T00:43:13.583Z,96629.15
2018-08-31T00:45:42.631Z,96640.13
2018-08-31T00:48:11.029Z,96637.64
2018-08-31T00:50:39.416Z,96633.56
2018-08-31T00:53:08.181Z,96631.60
2018-08-31T00:55:36.582Z,96631.27
2018-08-31T00:58:05.008Z,96636.61
2018-08-31T01:00:33.464Z,96633.13
2018-08-31T01:03:01.802Z,96632.37
2018-08-31T01:05:30.178Z,96629.93
2018-08-31T01:07:58.758Z,96632.64
2018-08-31T01:10:27.134Z,96622.14
2018-08-31T01:12:55.939Z,96627.23
2018-08-31T01:15:24.472Z,96621.52
2018-08-31T01:17:52.854Z,96614.32
2018-08-31T01:20:21.206Z,96603.27
2018-08-31T01:22:49.740Z,96590.25
2018-08-31T01:25:18.187Z,96581.75
2018-08-31T01:27:46.545Z,96574.97
2018-08-31T01:30:15.098Z,96560.90
2018-08-31T01:32:43.462Z,96554.02
2018-08-31T01:35:11.852Z,96552.98
2018-08-31T01:37:40.194Z,96558.75
2018-08-31T01:40:08.708Z,96569.24
2018-08-31T01:42:37.066Z,96569.44
2018-08-31T01:45:05.524Z,96565.00
2018-08-31T01:47:34.318Z,96566.14
2018-08-31T01:50:02.714Z,96568.59
2018-08-31T01:52:31.084Z,96566.96
2018-08-31T01:54:59.773Z,96566.14
2018-08-31T01:57:28.114Z,96566.14
2018-08-31T01:59:56.512Z,96563.96
2018-08-31T02:02:25.104Z,96557.22
2018-08-31T02:04:54.288Z,96556.08
2018-08-31T02:07:22.672Z,96563.21
2018-08-31T02:09:51.248Z,96562.92
2018-08-31T02:12:19.672Z,96558.61
2018-08-31T02:14:48.164Z,96560.95
2018-08-31T02:17:16.598Z,96562.42
2018-08-31T02:19:45.013Z,96551.41
2018-08-31T02:22:13.592Z,96551.93
2018-08-31T02:24:41.974Z,96538.56
2018-08-31T02:27:10.315Z,96537.33
2018-08-31T02:29:38.789Z,96540.81
2018-08-31T02:32:07.123Z,96547.00
2018-08-31T02:34:35.487Z,96552.22
2018-08-31T02:37:03.959Z,96547.70
2018-08-31T02:39:32.279Z,96549.75
2018-08-31T02:42:00.721Z,96542.06
2018-08-31T02:44:29.273Z,96524.98
2018-08-31T02:46:57.637Z,96526.21
2018-08-31T02:49:26.077Z,96523.14
2018-08-31T02:51:54.487Z,96528.78
2018-08-31T02:54:22.927Z,96523.87
2018-08-31T02:56:51.307Z,96526.83
2018-08-31T02:59:19.713Z,96531.78
2018-08-31T03:01:48.071Z,96531.36
2018-08-31T03:04:16.755Z,96533.13
2018-08-31T03:06:45.103Z,96537.42
2018-08-31T03:09:13.503Z,96539.90
2018-08-31T03:11:42.313Z,96530.74
2018-08-31T03:14:10.837Z,96545.64
2018-08-31T03:16:39.250Z,96544.41
2018-08-31T03:19:07.623Z,96547.34
2018-08-31T03:21:36.099Z,96550.64
2018-08-31T03:24:04.452Z,96541.97
2018-08-31T03:26:32.797Z,96539.81
2018-08-31T03:29:01.342Z,96535.39
2018-08-31T03:31:29.824Z,96532.20
2018-08-31T03:33:58.166Z,96530.47
2018-08-31T03:36:26.801Z,96536.13
2018-08-31T03:38:55.172Z,96532.75
2018-08-31T03:41:23.516Z,96525.35
2018-08-31T03:43:51.946Z,96522.58
2018-08-31T03:46:20.312Z,96520.52
2018-08-31T03:48:48.688Z,96524.83
2018-08-31T03:51:17.282Z,96523.49
2018-08-31T03:53:45.692Z,96521.59
2018-08-31T03:56:14.128Z,96513.67
2018-08-31T03:58:42.530Z,96511.94
2018-08-31T04:01:10.974Z,96509.27
2018-08-31T04:03:39.330Z,96511.42
2018-08-31T04:06:07.400Z,96517.58
2018-08-31T04:08:35.843Z,96516.24
2018-08-31T04:11:04.291Z,96515.52
2018-08-31T04:13:32.652Z,96515.23
2018-08-31T04:16:01.073Z,96516.86
2018-08-31T04:18:29.495Z,96517.77
2018-08-31T04:20:57.971Z,96526.84
2018-08-31T04:23:26.315Z,96536.09
2018-08-31T04:25:54.675Z,96546.82
2018-08-31T04:28:23.244Z,96546.11
2018-08-31T04:30:51.696Z,96558.81
2018-08-31T04:33:20.120Z,96558.38
2018-08-31T04:35:48.539Z,96555.62
2018-08-31T04:38:16.891Z,96560.77
2018-08-31T04:40:45.289Z,96553.50
2018-08-31T04:43:13.756Z,96546.92
2018-08-31T04:45:42.280Z,96544.55
2018-08-31T04:48:10.695Z,96541.67
2018-08-31T04:50:39.209Z,96537.08
2018-08-31T04:53:07.698Z,96528.83
2018-08-31T04:55:37.051Z,96525.67
2018-08-31T04:58:05.496Z,96522.16
2018-08-31T05:00:33.864Z,96531.02
2018-08-31T05:03:02.312Z,96532.03
2018-08-31T05:05:30.835Z,96533.81
2018-08-31T05:07:59.261Z,96525.41
2018-08-31T05:10:27.636Z,96536.39
2018-08-31T05:12:56.200Z,96540.39
2018-08-31T05:15:24.767Z,96534.33
2018-08-31T05:17:53.269Z,96526.94
2018-08-31T05:20:21.691Z,96512.23
2018-08-31T05:22:50.091Z,96500.33
2018-08-31T05:25:18.508Z,96477.62
2018-08-31T05:27:46.980Z,96465.27
2018-08-31T05:30:15.329Z,96461.88
2018-08-31T05:32:43.761Z,96466.66
2018-08-31T05:35:12.335Z,96468.81
2018-08-31T05:37:40.980Z,96467.38
2018-08-31T05:40:09.412Z,96466.67
2018-08-31T05:42:37.896Z,96464.70
2018-08-31T05:45:06.375Z,96470.17
2018-08-31T05:47:34.733Z,96472.58
2018-08-31T05:50:03.283Z,96481.50
2018-08-31T05:52:31.616Z,96493.33
2018-08-31T05:54:59.969Z,96494.27
2018-08-31T05:57:28.561Z,96493.02
2018-08-31T05:59:57.003Z,96499.60
2018-08-31T06:02:25.444Z,96500.84
2018-08-31T06:04:53.819Z,96495.08
2018-08-31T06:07:22.292Z,96493.23
2018-08-31T06:09:50.623Z,96486.66
2018-08-31T06:12:19.136Z,96484.37
2018-08-31T06:14:47.473Z,96476.48
2018-08-31T06:17:15.941Z,96485.31
2018-08-31T06:19:44.404Z,96490.75
2018-08-31T06:22:12.874Z,96492.09
2018-08-31T06:24:41.239Z,96488.55
2018-08-31T06:27:09.703Z,96486.13
2018-08-31T06:29:38.100Z,96485.22
2018-08-31T06:32:06.592Z,96489.02
2018-08-31T06:34:35.252Z,96489.84
2018-08-31T06:37:03.648Z,96486.03
2018-08-31T06:39:32.024Z,96498.36
2018-08-31T06:42:00.492Z,96495.69
2018-08-31T06:44:28.886Z,96492.49
2018-08-31T06:46:57.252Z,96496.72
2018-08-31T06:49:25.832Z,96497.14
2018-08-31T06:51:54.163Z,96492.09
2018-08-31T06:54:22.608Z,96493.55
2018-08-31T06:56:51.376Z,96491.78
2018-08-31T06:59:19.792Z,96486.84
2018-08-31T07:01:48.123Z,96485.93
2018-08-31T07:04:16.720Z,96494.15
2018-08-31T07:06:45.107Z,96499.08
2018-08-31T07:09:13.476Z,96510.61
2018-08-31T07:11:42.067Z,96517.70
2018-08-31T07:14:10.417Z,96512.88
2018-08-31T07:16:38.899Z,96517.28
2018-08-31T07:19:08.595Z,96518.42
2018-08-31T07:21:37.040Z,96518.82
2018-08-31T07:24:05.390Z,96522.50
2018-08-31T07:26:33.981Z,96516.94
2018-08-31T07:29:02.384Z,96518.25
2018-08-31T07:31:30.744Z,96518.87
2018-08-31T07:33:59.311Z,96519.91
2018-08-31T07:36:27.834Z,96520.33
2018-08-31T07:38:56.172Z,96515.53
2018-08-31T07:41:24.589Z,96517.19
2018-08-31T07:43:53.189Z,96518.51
2018-08-31T07:46:21.602Z,96517.48
2018-08-31T07:48:50.913Z,96518.72
2018-08-31T07:51:19.319Z,96516.04
2018-08-31T07:53:47.789Z,96516.98
2018-08-31T07:56:16.178Z,96521.80
2018-08-31T07:58:44.575Z,96519.56
2018-08-31T08:01:13.079Z,96513.17
2018-08-31T08:03:41.709Z,96524.80
2018-08-31T08:06:10.080Z,96530.45
2018-08-31T08:08:38.413Z,96539.30
2018-08-31T08:11:06.875Z,96548.02
2018-08-31T08:13:35.325Z,96546.48
2018-08-31T08:16:04.259Z,96544.73
2018-08-31T08:18:32.886Z,96548.44
2018-08-31T08:21:01.251Z,96552.45
2018-08-31T08:23:29.823Z,96552.65
2018-08-31T08:25:58.296Z,96553.37
2018-08-31T08:28:26.720Z,96560.05
2018-08-31T08:30:55.087Z,96550.56
2018-08-31T08:33:23.507Z,96559.62
2018-08-31T08:35:51.996Z,96557.77
2018-08-31T08:38:20.327Z,96559.20
2018-08-31T08:40:48.929Z,96558.58
2018-08-31T08:43:17.269Z,96559.53
2018-08-31T08:45:45.615Z,96557.47
2018-08-31T08:48:14.219Z,96558.38
2018-08-31T08:50:42.677Z,96558.52
2018-08-31T08:53:11.070Z,96557.99
2018-08-31T08:55:40.405Z,96556.55
2018-08-31T08:58:08.838Z,96560.77
2018-08-31T09:00:37.349Z,96560.95
2018-08-31T09:03:05.964Z,96561.88
2018-08-31T09:05:34.375Z,96559.82
2018-08-31T09:08:02.733Z,96563.21
2018-08-31T09:10:31.244Z,96562.95
2018-08-31T09:12:59.675Z,96564.91
2018-08-31T09:15:28.053Z,96564.19
2018-08-31T09:17:56.608Z,96562.33
2018-08-31T09:20:25.056Z,96563.47
2018-08-31T09:22:53.463Z,96564.71
2018-08-31T09:25:21.964Z,96564.52
2018-08-31T09:27:50.304Z,96560.41
2018-08-31T09:30:23.912Z,96563.83
2018-08-31T09:32:52.360Z,96560.05
2018-08-31T09:35:20.826Z,96568.26
2018-08-31T09:37:49.212Z,96562.81
2018-08-31T09:40:17.675Z,96568.39
2018-08-31T09:42:46.052Z,96569.50
2018-08-31T09:45:14.456Z,96567.47
2018-08-31T09:47:42.916Z,96572.39
2018-08-31T09:50:11.290Z,96569.10
2018-08-31T09:52:39.965Z,96566.42
2018-08-31T09:55:08.369Z,96568.38
2018-08-31T09:57:36.745Z,96565.19
2018-08-31T10:00:05.584Z,96563.86
2018-08-31T10:02:37.896Z,96557.17
2018-08-31T10:05:07.744Z,96547.91
2018-08-31T10:07:36.198Z,96536.92
2018-08-31T10:10:04.594Z,96543.20
2018-08-31T10:12:32.976Z,96539.70
2018-08-31T10:15:01.364Z,96541.88
2018-08-31T10:17:29.934Z,96541.77
2018-08-31T10:19:58.596Z,96538.89
2018-08-31T10:22:27.019Z,96546.20
2018-08-31T10:24:55.448Z,96541.47
2018-08-31T10:27:23.876Z,96541.97
2018-08-31T10:29:52.232Z,96545.35
2018-08-31T10:32:20.699Z,96545.15
2018-08-31T10:34:49.333Z,96549.77
2018-08-31T10:37:17.675Z,96551.92
2018-08-31T10:39:46.056Z,96554.52
2018-08-31T10:42:14.500Z,96554.09
2018-08-31T10:44:42.892Z,96563.66
2018-08-31T10:47:11.282Z,96562.45
2018-08-31T10:49:39.695Z,96562.95
2018-08-31T10:52:08.092Z,96565.72
2018-08-31T10:54:36.542Z,96565.84
2018-08-31T10:57:05.026Z,96567.06
2018-08-31T10:59:33.582Z,96567.16
2018-08-31T11:02:16.288Z,96573.64
2018-08-31T11:04:44.676Z,96565.41
2018-08-31T11:07:13.040Z,96570.53
2018-08-31T11:09:41.668Z,96561.49
2018-08-31T11:12:10.136Z,96564.58
2018-08-31T11:14:38.698Z,96566.73
2018-08-31T11:17:07.346Z,96554.16
2018-08-31T11:19:36.107Z,96559.52
2018-08-31T11:22:04.484Z,96558.59
2018-08-31T11:24:32.971Z,96564.88
2018-08-31T11:27:01.304Z,96560.22
2018-08-31T11:29:29.678Z,96560.02
2018-08-31T11:31:58.249Z,96554.87
2018-08-31T11:34:26.601Z,96559.09
2018-08-31T11:36:55.116Z,96548.30
2018-08-31T11:39:23.627Z,96549.02
2018-08-31T11:41:52.072Z,96546.14
2018-08-31T11:44:20.568Z,96546.88
2018-08-31T11:46:49.136Z,96543.88
2018-08-31T11:49:17.508Z,96545.09
2018-08-31T11:51:45.918Z,96537.91
2018-08-31T11:54:14.571Z,96536.05
2018-08-31T11:56:43.085Z,96534.71
2018-08-31T11:59:11.453Z,96536.25
2018-08-31T12:01:39.967Z,96540.97
2018-08-31T12:04:08.377Z,96540.23
2018-08-31T12:06:36.869Z,96532.84
2018-08-31T12:09:07.520Z,96541.81
2018-08-31T12:11:35.951Z,96532.03
2018-08-31T12:14:04.419Z,96533.66
2018-08-31T12:16:33.067Z,96532.44
2018-08-31T12:19:02.378Z,96527.38
2018-08-31T12:21:30.771Z,96526.73
2018-08-31T12:23:59.313Z,96522.62
2018-08-31T12:26:27.657Z,96519.83
2018-08-31T12:28:56.073Z,96524.74
2018-08-31T12:31:24.449Z,96519.38
2018-08-31T12:33:52.843Z,96522.27
2018-08-31T12:36:21.215Z,96522.50
2018-08-31T12:38:49.910Z,96524.57
2018-08-31T12:41:18.283Z,96517.77
2018-08-31T12:43:46.676Z,96514.06
2018-08-31T12:46:15.233Z,96508.51
2018-08-31T12:48:43.638Z,96509.41
2018-08-31T12:51:11.976Z,96502.59
2018-08-31T12:53:40.604Z,96494.66
2018-08-31T12:56:08.964Z,96489.68
2018-08-31T12:58:37.344Z,96484.96
2018-08-31T13:01:05.912Z,96493.60
2018-08-31T13:03:34.252Z,96490.60
2018-08-31T13:06:02.755Z,96491.66
2018-08-31T13:08:31.280Z,96486.71
2018-08-31T13:10:59.747Z,96491.46
2018-08-31T13:13:28.149Z,96479.62
2018-08-31T13:15:56.651Z,96479.62
2018-08-31T13:18:25.237Z,96491.75
2018-08-31T13:20:53.768Z,96496.38
2018-08-31T13:23:22.522Z,96498.97
2018-08-31T13:25:50.957Z,96502.17
2018-08-31T13:28:19.355Z,96499.70
2018-08-31T13:30:47.832Z,96502.91
2018-08-31T13:33:16.296Z,96494.27
2018-08-31T13:35:44.673Z,96496.21
2018-08-31T13:38:13.176Z,96490.73
2018-08-31T13:40:41.576Z,96485.56
2018-08-31T13:43:09.901Z,96489.45
2018-08-31T13:45:38.325Z,96491.20
2018-08-31T13:48:13.424Z,96487.78
2018-08-31T13:50:41.818Z,96484.58
2018-08-31T13:53:10.156Z,96486.00
2018-08-31T13:55:38.499Z,96481.03
2018-08-31T13:58:07.004Z,96487.81
2018-08-31T14:00:35.391Z,96481.43
2018-08-31T14:03:03.752Z,96482.56
2018-08-31T14:05:32.220Z,96478.83
2018-08-31T14:08:00.639Z,96476.55
2018-08-31T14:10:28.973Z,96470.05
2018-08-31T14:12:57.470Z,96478.30
2018-08-31T14:15:25.839Z,96480.09
2018-08-31T14:17:54.178Z,96484.32
2018-08-31T14:20:22.660Z,96482.38
2018-08-31T14:22:51.022Z,96481.03
2018-08-31T14:25:19.447Z,96483.19
2018-08-31T14:27:47.991Z,96484.32
2018-08-31T14:30:16.332Z,96484.84
2018-08-31T14:32:44.685Z,96487.00
2018-08-31T14:35:13.230Z,96484.32
2018-08-31T14:37:41.595Z,96484.84
2018-08-31T14:40:10.547Z,96487.73
2018-08-31T14:42:39.245Z,96484.45
2018-08-31T14:45:08.111Z,96482.50
2018-08-31T14:47:36.613Z,96486.52
2018-08-31T14:50:05.890Z,96494.69
2018-08-31T14:52:34.271Z,96494.20
2018-08-31T14:55:02.619Z,96491.34
2018-08-31T14:57:31.046Z,96491.25
2018-08-31T14:59:59.452Z,96487.45
2018-08-31T15:02:27.809Z,96490.65
2018-08-31T15:04:56.384Z,96491.98
2018-08-31T15:07:24.956Z,96490.33
2018-08-31T15:09:53.387Z,96488.09
2018-08-31T15:12:21.820Z,96490.66
2018-08-31T15:14:50.289Z,96490.50
2018-08-31T15:17:18.634Z,96490.91
2018-08-31T15:19:47.085Z,96489.25
2018-08-31T15:22:15.453Z,96495.86
2018-08-31T15:24:43.905Z,96488.16
2018-08-31T15:27:12.698Z,96492.90
2018-08-31T15:29:41.176Z,96492.61
2018-08-31T15:32:09.609Z,96485.20
2018-08-31T15:34:38.044Z,96491.25
2018-08-31T15:37:06.441Z,96487.15
2018-08-31T15:39:34.845Z,96489.50
2018-08-31T15:42:03.678Z,96487.27
2018-08-31T15:44:32.221Z,96493.95
2018-08-31T15:47:01.694Z,96487.27
2018-08-31T15:49:30.309Z,96496.02
2018-08-31T15:51:58.696Z,96499.92
2018-08-31T15:54:27.008Z,96504.45
2018-08-31T15:56:55.484Z,96503.03
2018-08-31T15:59:23.816Z,96501.69
2018-08-31T16:01:52.191Z,96506.44
2018-08-31T16:04:20.672Z,96499.66
2018-08-31T16:06:49.020Z,96505.82
2018-08-31T16:09:17.479Z,96501.20
2018-08-31T16:11:45.879Z,96499.05
2018-08-31T16:14:14.294Z,96495.03
2018-08-31T16:16:42.763Z,96504.69
2018-08-31T16:19:11.444Z,96501.92
2018-08-31T16:21:39.791Z,96500.70
2018-08-31T16:24:08.400Z,96497.32
2018-08-31T16:26:36.898Z,96500.92
2018-08-31T16:29:05.326Z,96498.98
2018-08-31T16:31:33.767Z,96502.14
2018-08-31T16:34:03.421Z,96496.50
2018-08-31T16:36:31.784Z,96497.84
2018-08-31T16:39:00.258Z,96487.95
2018-08-31T16:41:28.556Z,96492.78
2018-08-31T16:43:56.981Z,96495.45
2018-08-31T16:46:25.316Z,96502.75
2018-08-31T16:48:53.819Z,96510.28
2018-08-31T16:51:22.160Z,96510.78
2018-08-31T16:53:50.508Z,96513.98
2018-08-31T16:56:18.957Z,96517.37
2018-08-31T16:58:47.362Z,96518.09
2018-08-31T17:01:15.790Z,96526.23
2018-08-31T17:03:44.209Z,96529.43
2018-08-31T17:06:12.836Z,96528.30
2018-08-31T17:08:41.272Z,96536.22
2018-08-31T17:11:09.891Z,96525.73
2018-08-31T17:13:38.507Z,96530.55
2018-08-31T17:16:06.951Z,96540.23
2018-08-31T17:18:35.410Z,96533.22
2018-08-31T17:21:03.943Z,96539.39
2018-08-31T17:23:33.314Z,96533.75
2018-08-31T17:26:01.897Z,96532.52
2018-08-31T17:28:35.607Z,96530.16
2018-08-31T17:31:09.592Z,96528.69
2018-08-31T17:33:43.316Z,96533.84
2018-08-31T17:36:17.244Z,96541.77
2018-08-31T17:38:45.655Z,96545.16
2018-08-31T17:41:14.051Z,96542.16
2018-08-31T17:43:42.524Z,96544.11
2018-08-31T17:46:10.971Z,96539.00
2018-08-31T17:48:39.333Z,96536.81
2018-08-31T17:51:07.811Z,96538.67
2018-08-31T17:53:36.191Z,96542.59
2018-08-31T17:56:04.585Z,96540.93
2018-08-31T17:58:33.311Z,96545.27
2018-08-31T18:01:01.671Z,96550.51
2018-08-31T18:03:29.996Z,96544.34
2018-08-31T18:05:58.544Z,96545.68
2018-08-31T18:08:26.956Z,96546.17
2018-08-31T18:10:55.325Z,96556.58
2018-08-31T18:13:23.888Z,96551.33
2018-08-31T18:15:52.345Z,96557.17
2018-08-31T18:18:20.603Z,96561.17
2018-08-31T18:20:49.251Z,96561.89
2018-08-31T18:23:17.617Z,96567.77
2018-08-31T18:25:46.012Z,96571.05
2018-08-31T18:28:14.359Z,96572.29
2018-08-31T18:30:42.731Z,96576.30
2018-08-31T18:33:11.412Z,96578.68
2018-08-31T18:35:39.917Z,96581.95
2018-08-31T18:38:08.195Z,96588.20
2018-08-31T18:40:36.555Z,96590.81
2018-08-31T18:43:05.147Z,96592.14
2018-08-31T18:45:33.619Z,96597.49
2018-08-31T18:48:01.974Z,96594.30
2018-08-31T18:50:30.433Z,96600.36
2018-08-31T18:52:58.776Z,96599.03
2018-08-31T18:55:27.288Z,96597.78
2018-08-31T18:57:55.753Z,96606.42
2018-08-31T19:00:24.101Z,96602.52
2018-08-31T19:02:52.476Z,96600.33
2018-08-31T19:05:21.055Z,96602.19
2018-08-31T19:07:49.450Z,96598.70
2018-08-31T19:10:17.839Z,96598.38
2018-08-31T19:12:47.388Z,96594.79
2018-08-31T19:15:15.732Z,96599.52
2018-08-31T19:17:44.075Z,96597.14
2018-08-31T19:20:12.764Z,96601.96
2018-08-31T19:22:41.119Z,96604.64
2018-08-31T19:25:09.714Z,96599.71
2018-08-31T19:27:38.155Z,96609.59
2018-08-31T19:30:07.983Z,96614.31
2018-08-31T19:32:37.273Z,96616.82
2018-08-31T19:35:06.621Z,96618.25
2018-08-31T19:37:34.963Z,96614.01
2018-08-31T19:40:03.433Z,96618.24
2018-08-31T19:42:31.968Z,96617.10
2018-08-31T19:45:00.507Z,96615.14
2018-08-31T19:47:28.859Z,96617.39
2018-08-31T19:49:57.244Z,96615.53
2018-08-31T19:52:25.637Z,96612.14
2018-08-31T19:54:53.980Z,96613.28
2018-08-31T19:57:22.560Z,96609.80
2018-08-31T19:59:50.937Z,96612.47
2018-08-31T20:02:19.474Z,96613.81
2018-08-31T20:04:48.053Z,96611.85
2018-08-31T20:07:16.475Z,96616.34
2018-08-31T20:09:45.110Z,96618.34
2018-08-31T20:12:13.602Z,96616.28
2018-08-31T20:14:41.980Z,96620.06
2018-08-31T20:17:10.396Z,96617.81
2018-08-31T20:19:38.789Z,96618.20
2018-08-31T20:22:10.008Z,96617.06
2018-08-31T20:24:38.715Z,96611.72
2018-08-31T20:27:07.117Z,96618.63
2018-08-31T20:29:35.467Z,96605.12
2018-08-31T20:32:03.887Z,96613.99
2018-08-31T20:34:32.819Z,96615.52
2018-08-31T20:37:01.413Z,96617.56
2018-08-31T20:39:29.802Z,96621.34
2018-08-31T20:41:58.235Z,96627.39
2018-08-31T20:44:26.669Z,96634.16
2018-08-31T20:46:55.020Z,96634.63
2018-08-31T20:49:23.583Z,96640.38
2018-08-31T20:51:52.066Z,96639.05
2018-08-31T20:54:20.529Z,96642.91
2018-08-31T20:56:48.895Z,96646.90
2018-08-31T20:59:17.260Z,96653.77
2018-08-31T21:01:45.816Z,96653.58
2018-08-31T21:04:14.232Z,96643.62
2018-08-31T21:06:42.636Z,96644.58
2018-08-31T21:09:11.927Z,96646.13
2018-08-31T21:11:40.613Z,96642.97
2018-08-31T21:14:09.135Z,96640.67
2018-08-31T21:16:37.485Z,96641.39
2018-08-31T21:19:05.991Z,96639.23
2018-08-31T21:21:34.380Z,96636.84
2018-08-31T21:24:02.763Z,96638.02
2018-08-31T21:26:31.211Z,96636.25
2018-08-31T21:28:59.611Z,96639.33
2018-08-31T21:31:28.259Z,96637.56
2018-08-31T21:33:56.643Z,96640.12
2018-08-31T21:36:25.053Z,96637.31
2018-08-31T21:38:53.641Z,96632.30
2018-08-31T21:41:22.212Z,96631.97
2018-08-31T21:43:50.555Z,96633.63
2018-08-31T21:46:18.881Z,96629.92
2018-08-31T21:48:47.247Z,96631.45
2018-08-31T21:51:15.644Z,96633.83
2018-08-31T21:53:44.008Z,96625.27
2018-08-31T21:56:12.474Z,96626.55
2018-08-31T21:58:40.903Z,96628.91
2018-08-31T22:01:14.682Z,96630.36
2018-08-31T22:03:43.007Z,96631.80
2018-08-31T22:06:11.435Z,96634.47
2018-08-31T22:08:39.871Z,96634.06
2018-08-31T22:11:08.450Z,96626.55
2018-08-31T22:13:36.871Z,96620.20
2018-08-31T22:16:05.514Z,96618.16
2018-08-31T22:18:33.945Z,96619.39
2018-08-31T22:21:02.927Z,96617.09
2018-08-31T22:23:31.498Z,96612.77
2018-08-31T22:25:59.929Z,96615.76
2018-08-31T22:28:28.275Z,96619.05
2018-08-31T22:30:56.892Z,96621.53
2018-08-31T22:33:25.215Z,96621.12
2018-08-31T22:35:53.547Z,96616.72
2018-08-31T22:38:22.179Z,96612.98
2018-08-31T22:40:50.727Z,96612.66
2018-08-31T22:43:19.191Z,96615.95
2018-08-31T22:45:47.549Z,96615.33
2018-08-31T22:48:15.879Z,96612.66
2018-08-31T22:50:44.207Z,96616.84
2018-08-31T22:53:12.607Z,96612.66
2018-08-31T22:55:40.943Z,96612.27
2018-08-31T22:58:09.328Z,96612.38
2018-08-31T23:00:37.695Z,96606.42
2018-08-31T23:03:06.186Z,96603.75
2018-08-31T23:05:34.558Z,96610.75
2018-08-31T23:08:03.650Z,96606.69
2018-08-31T23:10:32.914Z,96613.95
2018-08-31T23:13:01.811Z,96621.11
2018-08-31T23:15:30.275Z,96620.62
2018-08-31T23:17:58.772Z,96618.77
2018-08-31T23:20:27.508Z,96622.77
2018-08-31T23:23:01.145Z,96619.48
2018-08-31T23:25:34.904Z,96617.78
2018-08-31T23:28:03.334Z,96616.67
2018-08-31T23:30:31.707Z,96615.71
2018-08-31T23:33:00.299Z,96608.30
2018-08-31T23:35:28.739Z,96607.27
2018-08-31T23:37:57.211Z,96600.16
2018-08-31T23:40:25.596Z,96605.82
2018-08-31T23:42:54.104Z,96602.64
2018-08-31T23:45:22.467Z,96595.59
2018-08-31T23:47:50.832Z,96594.18
2018-08-31T23:50:19.241Z,96592.66
2018-08-31T23:52:47.674Z,96595.33
2018-08-31T23:55:16.235Z,96596.44
2018-08-31T23:57:44.673Z,96596.52
